createdAt,value
2018-11-04T00:01:51.516Z,9.73
2018-11-04T00:04:56.418Z,9.64
2018-11-04T00:08:01.270Z,9.54
2018-11-04T00:11:06.676Z,9.56
2018-11-04T00:14:11.232Z,9.54
2018-11-04T00:17:15.973Z,9.58
2018-11-04T00:20:20.829Z,9.56
2018-11-04T00:23:25.675Z,9.56
2018-11-04T00:26:30.471Z,9.57
2018-11-04T00:29:35.215Z,9.58
2018-11-04T00:32:40.350Z,9.60
2018-11-04T00:35:45.127Z,9.61
2018-11-04T00:38:49.977Z,9.58
2018-11-04T00:41:54.858Z,9.58
2018-11-04T00:44:59.634Z,9.55
2018-11-04T00:48:04.401Z,9.58
2018-11-04T00:51:09.066Z,9.61
2018-11-04T00:54:14.423Z,9.59
2018-11-04T00:57:19.673Z,9.67
2018-11-04T01:00:24.924Z,9.78
2018-11-04T01:03:29.703Z,9.85
2018-11-04T01:06:34.375Z,9.90
2018-11-04T01:09:39.428Z,9.90
2018-11-04T01:12:44.951Z,9.82
2018-11-04T01:15:50.230Z,9.77
2018-11-04T01:18:55.176Z,9.70
2018-11-04T01:22:00.245Z,9.76
2018-11-04T01:25:05.935Z,9.66
2018-11-04T01:28:10.629Z,9.75
2018-11-04T01:31:16.197Z,9.85
2018-11-04T01:34:21.351Z,9.67
2018-11-04T01:37:26.157Z,9.63
2018-11-04T01:40:30.803Z,9.61
2018-11-04T01:43:36.051Z,9.60
2018-11-04T01:46:41.759Z,9.58
2018-11-04T01:49:46.558Z,9.58
2018-11-04T01:52:51.224Z,9.56
2018-11-04T01:55:55.892Z,9.54
2018-11-04T01:59:00.544Z,9.49
2018-11-04T02:02:05.563Z,9.49
2018-11-04T02:05:11.193Z,9.52
2018-11-04T02:08:15.805Z,9.51
2018-11-04T02:11:21.312Z,9.48
2018-11-04T02:14:25.897Z,9.47
2018-11-04T02:17:30.422Z,9.45
2018-11-04T02:20:35.042Z,9.47
2018-11-04T02:23:39.650Z,9.44
2018-11-04T02:26:44.234Z,9.47
2018-11-04T02:29:48.915Z,9.51
2018-11-04T02:32:53.832Z,9.55
2018-11-04T02:35:58.758Z,9.49
2018-11-04T02:39:03.531Z,9.42
2018-11-04T02:42:08.265Z,9.39
2018-11-04T02:45:12.837Z,9.40
2018-11-04T02:48:17.354Z,9.38
2018-11-04T02:51:22.073Z,9.45
2018-11-04T02:54:27.037Z,9.42
2018-11-04T02:57:31.888Z,9.38
2018-11-04T03:00:36.720Z,9.38
2018-11-04T03:03:41.672Z,9.38
2018-11-04T03:06:46.240Z,9.35
2018-11-04T03:09:50.852Z,9.36
2018-11-04T03:12:55.397Z,9.32
2018-11-04T03:16:00.021Z,9.30
2018-11-04T03:19:04.547Z,9.35
2018-11-04T03:22:09.164Z,9.33
2018-11-04T03:25:13.755Z,9.33
2018-11-04T03:28:18.344Z,9.30
2018-11-04T03:31:22.961Z,9.31
2018-11-04T03:34:27.465Z,9.36
2018-11-04T03:37:32.399Z,9.32
2018-11-04T03:40:36.962Z,9.31
2018-11-04T03:43:41.518Z,9.29
2018-11-04T03:46:46.210Z,9.28
2018-11-04T03:49:50.908Z,9.23
2018-11-04T03:52:59.483Z,9.24
2018-11-04T03:56:04.161Z,9.25
2018-11-04T03:59:09.211Z,9.26
2018-11-04T04:02:13.850Z,9.22
2018-11-04T04:05:18.660Z,9.24
2018-11-04T04:08:23.326Z,9.24
2018-11-04T04:11:27.936Z,9.19
2018-11-04T04:14:32.486Z,9.23
2018-11-04T04:17:37.195Z,9.24
2018-11-04T04:20:41.917Z,9.21
2018-11-04T04:23:46.647Z,9.22
2018-11-04T04:26:51.219Z,9.24
2018-11-04T04:29:55.977Z,9.19
2018-11-04T04:33:00.582Z,9.22
2018-11-04T04:36:05.526Z,9.30
2018-11-04T04:39:11.452Z,9.21
2018-11-04T04:42:16.263Z,9.17
2018-11-04T04:45:20.856Z,9.19
2018-11-04T04:48:25.454Z,9.19
2018-11-04T04:51:30.219Z,9.22
2018-11-04T04:54:34.775Z,9.22
2018-11-04T04:57:39.315Z,9.22
2018-11-04T05:00:44.289Z,9.24
2018-11-04T05:03:49.235Z,9.20
2018-11-04T05:06:54.092Z,9.18
2018-11-04T05:09:59.965Z,9.25
2018-11-04T05:13:04.598Z,9.23
2018-11-04T05:16:09.528Z,9.22
2018-11-04T05:19:14.290Z,9.24
2018-11-04T05:22:18.865Z,9.22
2018-11-04T05:25:23.667Z,9.24
2018-11-04T05:28:29.068Z,9.22
2018-11-04T05:31:33.571Z,9.22
2018-11-04T05:34:38.229Z,9.25
2018-11-04T05:37:42.839Z,9.27
2018-11-04T05:40:47.470Z,9.22
2018-11-04T05:43:53.110Z,9.24
2018-11-04T05:46:57.837Z,9.30
2018-11-04T05:50:02.445Z,9.24
2018-11-04T05:53:07.160Z,9.27
2018-11-04T05:56:11.898Z,9.22
2018-11-04T05:59:16.720Z,9.18
2018-11-04T06:02:22.144Z,9.21
2018-11-04T06:05:27.073Z,9.21
2018-11-04T06:08:31.990Z,9.29
2018-11-04T06:11:37.221Z,9.19
2018-11-04T06:14:42.634Z,9.26
2018-11-04T06:17:47.538Z,9.18
2018-11-04T06:20:52.340Z,9.16
2018-11-04T06:23:57.305Z,9.20
2018-11-04T06:27:02.925Z,9.19
2018-11-04T06:30:11.427Z,9.17
2018-11-04T06:33:16.116Z,9.21
2018-11-04T06:36:20.932Z,9.22
2018-11-04T06:39:25.888Z,9.19
2018-11-04T06:42:30.812Z,9.31
2018-11-04T06:45:35.578Z,9.30
2018-11-04T06:48:41.450Z,9.29
2018-11-04T06:51:46.176Z,9.29
2018-11-04T06:54:51.250Z,9.31
2018-11-04T06:57:56.314Z,9.26
2018-11-04T07:01:01.089Z,9.28
2018-11-04T07:04:18.498Z,9.39
2018-11-04T07:07:23.041Z,9.52
2018-11-04T07:10:27.751Z,9.47
2018-11-04T07:13:33.532Z,9.43
2018-11-04T07:16:38.442Z,9.49
2018-11-04T07:19:43.073Z,9.53
2018-11-04T07:22:48.083Z,9.45
2018-11-04T07:25:52.915Z,9.47
2018-11-04T07:28:57.983Z,9.50
2018-11-04T07:32:02.780Z,9.67
2018-11-04T07:35:07.928Z,9.81
2018-11-04T07:38:12.541Z,9.73
2018-11-04T07:41:17.496Z,9.67
2018-11-04T07:44:22.403Z,9.74
2018-11-04T07:47:26.971Z,9.81
2018-11-04T07:50:31.673Z,9.78
2018-11-04T07:53:36.805Z,9.84
2018-11-04T07:56:41.370Z,9.91
2018-11-04T07:59:45.913Z,9.97
2018-11-04T08:02:50.420Z,10.04
2018-11-04T08:05:55.809Z,10.17
2018-11-04T08:09:00.415Z,10.25
2018-11-04T08:12:07.173Z,10.18
2018-11-04T08:15:12.309Z,10.16
2018-11-04T08:18:16.922Z,10.19
2018-11-04T08:21:21.716Z,10.15
2018-11-04T08:24:26.631Z,10.27
2018-11-04T08:27:31.746Z,10.28
2018-11-04T08:30:36.967Z,10.28
2018-11-04T08:33:41.931Z,10.30
2018-11-04T08:36:47.275Z,10.61
2018-11-04T08:39:52.318Z,10.62
2018-11-04T08:42:57.373Z,10.80
2018-11-04T08:46:02.228Z,10.76
2018-11-04T08:49:07.076Z,10.74
2018-11-04T08:52:11.955Z,10.68
2018-11-04T08:55:16.657Z,10.82
2018-11-04T08:58:21.352Z,10.75
2018-11-04T09:01:25.884Z,10.91
2018-11-04T09:04:30.668Z,10.86
2018-11-04T09:07:35.969Z,10.81
2018-11-04T09:10:41.065Z,10.86
2018-11-04T09:13:45.806Z,10.94
2018-11-04T09:16:53.701Z,10.94
2018-11-04T09:19:59.413Z,10.83
2018-11-04T09:23:04.089Z,10.81
2018-11-04T09:26:09.301Z,10.84
2018-11-04T09:29:14.155Z,10.97
2018-11-04T09:32:18.686Z,10.97
2018-11-04T09:35:23.349Z,11.03
2018-11-04T09:38:27.795Z,11.07
2018-11-04T09:41:32.368Z,11.02
2018-11-04T09:44:37.007Z,11.05
2018-11-04T09:47:41.952Z,10.97
2018-11-04T09:50:46.948Z,11.06
2018-11-04T09:53:52.078Z,11.21
2018-11-04T09:56:57.208Z,11.21
2018-11-04T10:00:02.533Z,11.10
2018-11-04T10:03:07.860Z,11.21
2018-11-04T10:06:13.168Z,11.16
2018-11-04T10:09:18.884Z,11.14
2018-11-04T10:12:24.824Z,11.11
2018-11-04T10:15:30.663Z,11.33
2018-11-04T10:18:35.596Z,11.46
2018-11-04T10:21:40.578Z,11.26
2018-11-04T10:24:46.144Z,11.41
2018-11-04T10:31:05.748Z,11.26
2018-11-04T10:34:10.404Z,11.29
2018-11-04T10:37:15.166Z,11.26
2018-11-04T10:40:21.170Z,11.37
2018-11-04T10:43:25.830Z,11.35
2018-11-04T10:46:30.482Z,11.51
2018-11-04T10:49:35.288Z,11.64
2018-11-04T10:52:39.955Z,11.66
2018-11-04T10:55:44.740Z,11.75
2018-11-04T10:58:49.603Z,11.68
2018-11-04T11:01:56.082Z,11.72
2018-11-04T11:05:00.703Z,11.60
2018-11-04T11:08:05.676Z,11.59
2018-11-04T11:11:11.244Z,11.68
2018-11-04T11:14:15.844Z,11.68
2018-11-04T11:17:20.468Z,11.82
2018-11-04T11:20:25.046Z,11.84
2018-11-04T11:23:29.584Z,12.03
2018-11-04T11:26:34.187Z,11.98
2018-11-04T11:29:38.763Z,11.86
2018-11-04T11:32:43.370Z,11.98
2018-11-04T11:35:47.990Z,12.05
2018-11-04T11:38:52.535Z,12.02
2018-11-04T11:41:57.126Z,12.03
2018-11-04T11:45:01.874Z,11.99
2018-11-04T11:48:06.551Z,11.76
2018-11-04T11:51:11.136Z,11.97
2018-11-04T11:54:15.803Z,11.90
2018-11-04T11:57:20.392Z,11.87
2018-11-04T12:00:24.977Z,11.85
2018-11-04T12:03:29.743Z,12.06
2018-11-04T12:06:34.274Z,12.01
2018-11-04T12:09:38.847Z,12.07
2018-11-04T12:12:43.437Z,11.96
2018-11-04T12:15:48.099Z,12.11
2018-11-04T12:18:52.705Z,12.03
2018-11-04T12:21:57.266Z,12.10
2018-11-04T12:25:01.960Z,12.02
2018-11-04T12:28:06.590Z,12.08
2018-11-04T12:31:11.237Z,12.22
2018-11-04T12:34:15.911Z,12.25
2018-11-04T12:37:20.398Z,12.19
2018-11-04T12:40:25.036Z,12.15
2018-11-04T12:43:29.660Z,12.08
2018-11-04T12:46:34.228Z,12.10
2018-11-04T12:49:38.787Z,12.22
2018-11-04T12:52:43.227Z,12.11
2018-11-04T12:55:48.012Z,12.21
2018-11-04T12:58:52.566Z,12.26
2018-11-04T13:01:57.242Z,12.01
2018-11-04T13:05:01.778Z,11.93
2018-11-04T13:08:06.515Z,11.96
2018-11-04T13:11:11.249Z,11.95
2018-11-04T13:14:15.940Z,11.94
2018-11-04T13:17:20.527Z,12.12
2018-11-04T13:20:25.378Z,12.01
2018-11-04T13:23:45.470Z,11.98
2018-11-04T13:26:50.023Z,12.09
2018-11-04T13:29:54.493Z,12.10
2018-11-04T13:32:59.133Z,12.08
2018-11-04T13:36:03.776Z,12.10
2018-11-04T13:39:09.653Z,12.04
2018-11-04T13:42:14.366Z,12.07
2018-11-04T13:45:19.102Z,11.99
2018-11-04T13:48:23.806Z,12.05
2018-11-04T13:51:28.360Z,12.10
2018-11-04T13:54:33.027Z,12.04
2018-11-04T13:57:38.108Z,11.89
2018-11-04T14:00:42.734Z,11.91
2018-11-04T14:03:47.422Z,12.05
2018-11-04T14:06:51.943Z,11.96
2018-11-04T14:09:56.592Z,11.94
2018-11-04T14:13:01.199Z,11.96
2018-11-04T14:16:05.889Z,12.03
2018-11-04T14:19:10.504Z,12.19
2018-11-04T14:22:15.105Z,12.16
2018-11-04T14:25:19.756Z,12.12
2018-11-04T14:28:24.415Z,12.07
2018-11-04T14:31:28.978Z,12.08
2018-11-04T14:34:33.546Z,12.14
2018-11-04T14:37:38.900Z,11.87
2018-11-04T14:40:43.565Z,11.84
2018-11-04T14:43:48.194Z,11.82
2018-11-04T14:46:52.845Z,11.85
2018-11-04T14:49:57.391Z,11.75
2018-11-04T14:53:02.076Z,11.77
2018-11-04T14:56:07.194Z,11.81
2018-11-04T14:59:11.963Z,11.78
2018-11-04T15:02:16.589Z,11.70
2018-11-04T15:05:21.171Z,11.60
2018-11-04T15:08:25.786Z,11.77
2018-11-04T15:11:30.613Z,11.60
2018-11-04T15:14:35.267Z,11.67
2018-11-04T15:17:40.124Z,11.67
2018-11-04T15:20:45.127Z,11.63
2018-11-04T15:23:49.892Z,11.66
2018-11-04T15:26:54.417Z,11.58
2018-11-04T15:29:59.049Z,11.69
2018-11-04T15:33:03.789Z,11.55
2018-11-04T15:36:08.851Z,11.51
2018-11-04T15:39:14.062Z,11.44
2018-11-04T15:42:19.361Z,11.47
2018-11-04T15:45:24.076Z,11.42
2018-11-04T15:48:28.921Z,11.39
2018-11-04T15:51:33.609Z,11.39
2018-11-04T15:54:38.514Z,11.32
2018-11-04T15:57:43.118Z,11.32
2018-11-04T16:00:47.800Z,11.33
2018-11-04T16:03:52.473Z,11.39
2018-11-04T16:06:57.015Z,11.37
2018-11-04T16:10:01.856Z,11.41
2018-11-04T16:13:06.631Z,11.24
2018-11-04T16:16:11.294Z,11.23
2018-11-04T16:19:15.926Z,11.31
2018-11-04T16:22:20.573Z,11.39
2018-11-04T16:25:25.235Z,11.37
2018-11-04T16:28:29.867Z,11.34
2018-11-04T16:31:34.721Z,11.24
2018-11-04T16:34:39.336Z,11.25
2018-11-04T16:37:44.790Z,11.20
2018-11-04T16:40:49.324Z,11.28
2018-11-04T16:43:54.108Z,11.20
2018-11-04T16:46:58.738Z,11.14
2018-11-04T16:50:03.285Z,11.25
2018-11-04T16:53:07.910Z,11.10
2018-11-04T16:56:12.544Z,11.10
2018-11-04T16:59:18.181Z,11.15
2018-11-04T17:02:22.775Z,11.21
2018-11-04T17:05:27.715Z,11.21
2018-11-04T17:08:31.968Z,11.21
2018-11-04T17:11:36.795Z,11.21
2018-11-04T17:14:41.222Z,11.21
2018-11-04T17:17:45.791Z,11.19
2018-11-04T17:20:50.327Z,11.24
2018-11-04T17:23:54.905Z,11.09
2018-11-04T17:26:59.497Z,11.04
2018-11-04T17:30:05.327Z,11.05
2018-11-04T17:33:09.999Z,11.03
2018-11-04T17:36:14.624Z,11.27
2018-11-04T17:39:19.172Z,11.09
2018-11-04T17:45:39.961Z,11.13
2018-11-04T17:48:44.669Z,11.03
2018-11-04T17:51:49.199Z,11.24
2018-11-04T17:54:53.801Z,11.13
2018-11-04T17:57:58.350Z,11.16
2018-11-04T18:01:03.002Z,11.10
2018-11-04T18:04:07.632Z,11.05
2018-11-04T18:07:12.293Z,11.04
2018-11-04T18:10:17.230Z,11.10
2018-11-04T18:13:22.012Z,11.04
2018-11-04T18:16:26.672Z,11.00
2018-11-04T18:19:31.322Z,11.16
2018-11-04T18:22:35.903Z,11.14
2018-11-04T18:25:40.675Z,11.18
2018-11-04T18:28:45.283Z,11.18
2018-11-04T18:31:49.863Z,11.24
2018-11-04T18:34:54.679Z,11.25
2018-11-04T18:37:59.306Z,11.09
2018-11-04T18:41:03.928Z,11.18
2018-11-04T18:44:09.262Z,11.26
2018-11-04T18:47:13.777Z,11.24
2018-11-04T18:50:18.484Z,11.23
2018-11-04T18:53:23.108Z,11.13
2018-11-04T18:56:27.691Z,11.19
2018-11-04T18:59:32.268Z,11.13
2018-11-04T19:02:36.787Z,11.19
2018-11-04T19:05:41.969Z,11.13
2018-11-04T19:08:47.618Z,11.06
2018-11-04T19:11:53.125Z,11.01
2018-11-04T19:14:58.071Z,11.04
2018-11-04T19:18:03.412Z,11.14
2018-11-04T19:21:08.771Z,11.10
2018-11-04T19:24:14.329Z,11.06
2018-11-04T19:27:19.883Z,11.10
2018-11-04T19:30:24.475Z,11.18
2018-11-04T19:33:29.003Z,11.20
2018-11-04T19:36:33.649Z,11.15
2018-11-04T19:39:39.499Z,11.07
2018-11-04T19:42:45.017Z,11.17
2018-11-04T19:45:51.290Z,11.13
2018-11-04T19:48:56.774Z,11.07
2018-11-04T19:52:02.104Z,11.20
2018-11-04T19:55:08.727Z,11.16
2018-11-04T19:58:13.949Z,11.22
2018-11-04T20:01:19.127Z,11.20
2018-11-04T20:04:24.448Z,11.09
2018-11-04T20:07:29.477Z,11.09
2018-11-04T20:10:34.932Z,11.08
2018-11-04T20:13:44.871Z,11.08
2018-11-04T20:16:51.409Z,11.25
2018-11-04T20:20:01.603Z,11.05
2018-11-04T20:23:06.641Z,11.26
2018-11-04T20:26:12.796Z,11.18
2018-11-04T20:29:17.860Z,11.11
2018-11-04T20:32:28.009Z,11.07
2018-11-04T20:35:33.347Z,11.06
2018-11-04T20:38:43.564Z,11.04
2018-11-04T20:41:48.197Z,11.10
2018-11-04T20:44:54.934Z,11.08
2018-11-04T20:48:05.230Z,11.08
2018-11-04T20:51:09.938Z,11.05
2018-11-04T20:54:14.703Z,11.08
2018-11-04T20:57:24.637Z,11.04
2018-11-04T21:00:29.520Z,10.99
2018-11-04T21:03:34.128Z,11.04
2018-11-04T21:06:38.849Z,11.03
2018-11-04T21:09:43.572Z,11.05
2018-11-04T21:12:48.290Z,11.02
2018-11-04T21:15:53.023Z,10.97
2018-11-04T21:18:57.768Z,10.92
2018-11-04T21:22:02.429Z,10.87
2018-11-04T21:25:08.401Z,10.97
2018-11-04T21:28:15.314Z,10.99
2018-11-04T21:31:20.091Z,10.95
2018-11-04T21:34:24.681Z,11.23
2018-11-04T21:37:29.360Z,10.99
2018-11-04T21:40:34.009Z,10.94
2018-11-04T21:43:39.072Z,10.92
2018-11-04T21:46:43.627Z,11.11
2018-11-04T21:49:48.278Z,11.00
2018-11-04T21:52:53.099Z,11.13
2018-11-04T21:55:57.777Z,11.00
2018-11-04T21:59:02.335Z,10.96
2018-11-04T22:02:07.800Z,10.90
2018-11-04T22:05:12.795Z,10.88
2018-11-04T22:08:17.456Z,10.86
2018-11-04T22:11:22.143Z,10.87
2018-11-04T22:14:26.760Z,10.91
2018-11-04T22:17:31.461Z,10.97
2018-11-04T22:20:36.174Z,10.91
2018-11-04T22:23:40.953Z,10.91
2018-11-04T22:26:46.642Z,10.84
2018-11-04T22:29:51.286Z,10.79
2018-11-04T22:32:55.947Z,10.80
2018-11-04T22:36:00.533Z,10.84
2018-11-04T22:39:07.093Z,10.82
2018-11-04T22:42:11.852Z,10.94
2018-11-04T22:45:16.385Z,10.95
2018-11-04T22:48:20.943Z,10.93
2018-11-04T22:51:25.563Z,10.93
2018-11-04T22:54:30.172Z,10.93
2018-11-04T22:57:34.790Z,10.91
2018-11-04T23:00:42.195Z,10.89
2018-11-04T23:03:46.821Z,10.89
2018-11-04T23:06:51.876Z,10.87
2018-11-04T23:09:56.991Z,10.89
2018-11-04T23:13:01.661Z,10.89
2018-11-04T23:16:06.260Z,10.94
2018-11-04T23:19:11.031Z,10.95
2018-11-04T23:22:15.713Z,10.86
2018-11-04T23:25:20.343Z,10.86
2018-11-04T23:28:24.885Z,10.89
2018-11-04T23:31:29.582Z,11.00
2018-11-04T23:34:34.158Z,10.99
2018-11-04T23:37:38.864Z,10.98
2018-11-04T23:40:43.561Z,11.09
2018-11-04T23:43:48.276Z,11.05
2018-11-04T23:46:52.765Z,11.03
2018-11-04T23:49:57.412Z,11.03
2018-11-04T23:53:02.018Z,11.25
2018-11-04T23:56:07.186Z,11.35
2018-11-04T23:59:11.869Z,11.41
